createdAt,value
2022-10-14T00:01:20.951Z,100296.00
2022-10-14T00:03:48.171Z,100303.78
2022-10-14T00:06:20.364Z,100296.84
2022-10-14T00:08:49.774Z,100300.34
2022-10-14T00:11:21.074Z,100301.25
2022-10-14T00:13:47.863Z,100289.00
2022-10-14T00:16:22.668Z,100292.50
2022-10-14T00:18:49.783Z,100287.19
2022-10-14T00:21:16.956Z,100287.31
2022-10-14T00:23:44.335Z,100289.06
2022-10-14T00:26:22.296Z,100289.84
2022-10-14T00:28:49.341Z,100285.56
2022-10-14T00:31:16.871Z,100284.75
2022-10-14T00:33:43.765Z,100276.06
2022-10-14T00:36:12.443Z,100283.91
2022-10-14T00:38:39.110Z,100289.97
2022-10-14T00:41:06.482Z,100283.06
2022-10-14T00:44:03.312Z,100275.25
2022-10-14T00:46:34.636Z,100278.81
2022-10-14T00:49:09.348Z,100275.41
2022-10-14T00:51:36.537Z,100275.59
2022-10-14T00:54:03.595Z,100270.47
2022-10-14T00:56:30.662Z,100249.94
2022-10-14T00:58:58.318Z,100267.91
2022-10-14T01:01:25.295Z,100269.63
2022-10-14T01:03:51.913Z,100283.66
2022-10-14T01:06:37.244Z,100274.16
2022-10-14T01:09:39.152Z,100260.47
2022-10-14T01:12:29.232Z,100279.38
2022-10-14T01:15:07.806Z,100264.44
2022-10-14T01:17:40.549Z,100274.22
2022-10-14T01:20:07.347Z,100278.66
2022-10-14T01:23:15.785Z,100277.31
2022-10-14T01:25:56.793Z,100277.25
2022-10-14T01:28:41.266Z,100279.88
2022-10-14T01:31:11.417Z,100272.28
2022-10-14T01:33:40.447Z,100281.22
2022-10-14T01:36:22.542Z,100268.34
2022-10-14T01:38:58.464Z,100281.53
2022-10-14T01:41:35.331Z,100276.25
2022-10-14T01:44:04.622Z,100269.63
2022-10-14T01:46:32.132Z,100261.94
2022-10-14T01:49:02.396Z,100268.78
2022-10-14T01:51:33.822Z,100274.88
2022-10-14T01:54:06.833Z,100272.38
2022-10-14T01:56:38.161Z,100271.50
2022-10-14T01:59:08.455Z,100281.66
2022-10-14T02:01:36.684Z,100268.72
2022-10-14T02:04:03.511Z,100269.69
2022-10-14T02:06:34.140Z,100275.88
2022-10-14T02:09:28.766Z,100266.44
2022-10-14T02:12:11.255Z,100264.66
2022-10-14T02:14:59.210Z,100266.59
2022-10-14T02:17:46.230Z,100259.75
2022-10-14T02:20:25.085Z,100264.16
2022-10-14T02:23:21.669Z,100257.22
2022-10-14T02:25:49.636Z,100256.09
2022-10-14T02:28:18.962Z,100262.94
2022-10-14T02:30:59.000Z,100260.28
2022-10-14T02:33:29.362Z,100267.19
2022-10-14T02:35:56.541Z,100262.59
2022-10-14T02:38:25.093Z,100263.94
2022-10-14T02:40:51.756Z,100254.63
2022-10-14T02:43:18.578Z,100260.84
2022-10-14T02:45:45.182Z,100258.31
2022-10-14T02:48:12.642Z,100246.91
2022-10-14T02:50:39.608Z,100243.31
2022-10-14T02:53:06.304Z,100258.75
2022-10-14T02:55:33.005Z,100257.97
2022-10-14T02:57:59.666Z,100255.56
2022-10-14T03:00:26.422Z,100252.50
2022-10-14T03:02:52.998Z,100263.59
2022-10-14T03:05:19.733Z,100257.69
2022-10-14T03:07:46.358Z,100240.56
2022-10-14T03:10:13.023Z,100239.88
2022-10-14T03:12:39.682Z,100252.84
2022-10-14T03:15:07.721Z,100245.94
2022-10-14T03:17:34.421Z,100248.53
2022-10-14T03:20:01.043Z,100243.44
2022-10-14T03:22:27.779Z,100247.84
2022-10-14T03:24:54.410Z,100254.94
2022-10-14T03:27:21.088Z,100252.31
2022-10-14T03:29:47.749Z,100257.63
2022-10-14T03:32:14.391Z,100250.13
2022-10-14T03:34:41.037Z,100255.34
2022-10-14T03:37:07.907Z,100255.47
2022-10-14T03:39:34.757Z,100260.75
2022-10-14T03:42:01.757Z,100260.75
2022-10-14T03:44:28.384Z,100249.50
2022-10-14T03:46:55.044Z,100251.28
2022-10-14T03:49:21.809Z,100249.66
2022-10-14T03:51:48.449Z,100254.91
2022-10-14T03:54:15.098Z,100260.97
2022-10-14T03:56:41.782Z,100260.06
2022-10-14T03:59:08.421Z,100252.47
2022-10-14T04:01:35.173Z,100245.84
2022-10-14T04:04:01.800Z,100262.19
2022-10-14T04:06:28.581Z,100261.41
2022-10-14T04:08:55.195Z,100257.94
2022-10-14T04:11:21.763Z,100264.03
2022-10-14T04:13:48.425Z,100263.22
2022-10-14T04:16:15.106Z,100274.53
2022-10-14T04:18:41.717Z,100258.44
2022-10-14T04:21:11.611Z,100260.56
2022-10-14T04:23:38.575Z,100267.66
2022-10-14T04:26:06.524Z,100271.78
2022-10-14T04:28:33.712Z,100266.75
2022-10-14T04:31:00.700Z,100264.88
2022-10-14T04:33:27.382Z,100280.31
2022-10-14T04:36:01.085Z,100275.03
2022-10-14T04:38:28.088Z,100272.38
2022-10-14T04:40:55.244Z,100279.16
2022-10-14T04:43:22.226Z,100273.88
2022-10-14T04:45:49.225Z,100271.28
2022-10-14T04:48:16.637Z,100278.06
2022-10-14T04:50:43.281Z,100266.66
2022-10-14T04:53:13.538Z,100264.94
2022-10-14T04:55:40.882Z,100275.91
2022-10-14T04:58:07.678Z,100276.53
2022-10-14T05:00:34.629Z,100273.97
2022-10-14T05:03:01.214Z,100276.25
2022-10-14T05:05:27.801Z,100273.56
2022-10-14T05:07:54.443Z,100279.66
2022-10-14T05:10:21.861Z,100278.63
2022-10-14T05:12:48.837Z,100277.75
2022-10-14T05:15:15.645Z,100274.94
2022-10-14T05:17:44.647Z,100268.75
2022-10-14T05:20:14.431Z,100274.88
2022-10-14T05:22:41.054Z,100281.47
2022-10-14T05:25:07.976Z,100278.09
2022-10-14T05:27:34.833Z,100269.13
2022-10-14T05:30:01.486Z,100278.34
2022-10-14T05:32:28.649Z,100274.50
2022-10-14T05:34:55.408Z,100279.59
2022-10-14T05:37:22.238Z,100282.44
2022-10-14T05:39:48.961Z,100269.22
2022-10-14T05:42:15.540Z,100281.47
2022-10-14T05:44:42.159Z,100268.06
2022-10-14T05:47:10.303Z,100261.28
2022-10-14T05:49:36.890Z,100265.38
2022-10-14T05:52:03.662Z,100257.97
2022-10-14T05:54:30.303Z,100272.38
2022-10-14T05:56:57.137Z,100274.16
2022-10-14T05:59:23.721Z,100278.34
2022-10-14T06:01:50.314Z,100273.25
2022-10-14T06:04:19.013Z,100272.38
2022-10-14T06:06:45.767Z,100263.50
2022-10-14T06:09:12.889Z,100275.91
2022-10-14T06:11:39.632Z,100283.00
2022-10-14T06:14:06.591Z,100283.53
2022-10-14T06:16:33.343Z,100288.63
2022-10-14T06:18:59.974Z,100282.56
2022-10-14T06:21:27.275Z,100265.91
2022-10-14T06:23:53.885Z,100290.16
2022-10-14T06:26:20.461Z,100292.47
2022-10-14T06:28:47.186Z,100287.16
2022-10-14T06:31:14.027Z,100270.22
2022-10-14T06:33:40.753Z,100298.88
2022-10-14T06:36:07.854Z,100307.25
2022-10-14T06:38:34.483Z,100293.78
2022-10-14T06:41:01.212Z,100288.31
2022-10-14T06:43:27.808Z,100274.31
2022-10-14T06:45:57.241Z,100291.47
2022-10-14T06:48:24.013Z,100297.16
2022-10-14T06:50:50.610Z,100280.44
2022-10-14T06:53:17.323Z,100301.78
2022-10-14T06:55:43.990Z,100303.66
2022-10-14T06:58:10.631Z,100293.88
2022-10-14T07:00:37.491Z,100303.88
2022-10-14T07:03:04.342Z,100297.19
2022-10-14T07:05:31.033Z,100285.94
2022-10-14T07:07:58.583Z,100299.63
2022-10-14T07:10:25.178Z,100275.25
2022-10-14T07:12:55.786Z,100286.38
2022-10-14T07:15:22.833Z,100279.91
2022-10-14T07:17:49.460Z,100272.00
2022-10-14T07:20:16.205Z,100273.75
2022-10-14T07:22:42.896Z,100265.25
2022-10-14T07:25:10.055Z,100243.13
2022-10-14T07:27:36.876Z,100255.59
2022-10-14T07:30:05.141Z,100250.59
2022-10-14T07:32:31.974Z,100260.50
2022-10-14T07:34:58.915Z,100241.50
2022-10-14T07:37:25.724Z,100250.09
2022-10-14T07:39:52.414Z,100246.22
2022-10-14T07:44:50.608Z,100241.81
2022-10-14T07:47:17.270Z,100230.44
2022-10-14T07:49:43.914Z,100242.09
2022-10-14T07:52:10.591Z,100257.94
2022-10-14T07:54:37.238Z,100244.84
2022-10-14T07:57:04.316Z,100228.44
2022-10-14T07:59:31.040Z,100250.59
2022-10-14T08:01:57.805Z,100256.72
2022-10-14T08:04:25.274Z,100254.53
2022-10-14T08:06:52.674Z,100252.56
2022-10-14T08:09:20.212Z,100248.28
2022-10-14T08:11:47.373Z,100253.66
2022-10-14T08:14:14.223Z,100248.91
2022-10-14T08:16:40.990Z,100214.31
2022-10-14T08:19:14.163Z,100250.16
2022-10-14T08:21:42.747Z,100225.84
2022-10-14T08:24:09.787Z,100231.50
2022-10-14T08:26:38.619Z,100234.47
2022-10-14T08:29:15.133Z,100245.63
2022-10-14T08:31:41.769Z,100251.31
2022-10-14T08:34:08.338Z,100231.84
2022-10-14T08:36:34.949Z,100248.03
2022-10-14T08:39:01.626Z,100241.19
2022-10-14T08:41:52.273Z,100250.16
2022-10-14T08:44:24.880Z,100254.88
2022-10-14T08:46:58.578Z,100244.63
2022-10-14T08:49:31.052Z,100252.69
2022-10-14T08:52:36.467Z,100228.34
2022-10-14T08:55:32.871Z,100245.00
2022-10-14T09:00:53.640Z,100243.38
2022-10-14T09:03:33.391Z,100247.81
2022-10-14T09:06:00.589Z,100253.81
2022-10-14T09:08:42.107Z,100255.28
2022-10-14T09:11:19.947Z,100244.13
2022-10-14T09:14:01.661Z,100252.34
2022-10-14T09:16:31.682Z,100248.47
2022-10-14T09:19:31.183Z,100248.72
2022-10-14T09:21:59.512Z,100222.69
2022-10-14T09:24:27.944Z,100251.34
2022-10-14T09:27:01.309Z,100232.78
2022-10-14T09:29:29.950Z,100250.94
2022-10-14T09:31:59.332Z,100252.59
2022-10-14T09:34:30.640Z,100244.66
2022-10-14T09:37:00.747Z,100246.16
2022-10-14T09:39:28.205Z,100246.56
2022-10-14T09:41:55.536Z,100241.22
2022-10-14T09:44:26.262Z,100242.81
2022-10-14T09:46:58.643Z,100241.34
2022-10-14T09:49:39.924Z,100235.09
2022-10-14T09:52:39.084Z,100235.16
2022-10-14T09:55:09.038Z,100214.31
2022-10-14T09:57:35.630Z,100240.25
2022-10-14T10:00:05.301Z,100235.91
2022-10-14T10:02:42.298Z,100241.03
2022-10-14T10:05:24.788Z,100222.72
2022-10-14T10:08:19.518Z,100231.00
2022-10-14T10:11:08.966Z,100231.34
2022-10-14T10:13:43.381Z,100231.63
2022-10-14T10:16:28.000Z,100230.41
2022-10-14T10:18:56.205Z,100212.25
2022-10-14T10:21:27.029Z,100236.00
2022-10-14T10:23:58.210Z,100225.34
2022-10-14T10:26:32.072Z,100227.84
2022-10-14T10:29:03.874Z,100225.19
2022-10-14T10:31:36.630Z,100224.22
2022-10-14T10:34:28.509Z,100227.44
2022-10-14T10:37:33.606Z,100205.19
2022-10-14T10:40:23.137Z,100224.88
2022-10-14T10:43:18.668Z,100210.53
2022-10-14T10:45:45.213Z,100225.00
2022-10-14T10:48:21.212Z,100213.59
2022-10-14T10:50:56.367Z,100225.78
2022-10-14T10:53:41.359Z,100222.16
2022-10-14T10:56:40.237Z,100212.38
2022-10-14T10:59:33.597Z,100209.41
2022-10-14T11:02:12.137Z,100207.72
2022-10-14T11:04:46.323Z,100201.66
2022-10-14T11:07:49.312Z,100203.41
2022-10-14T11:10:48.946Z,100202.13
2022-10-14T11:13:33.899Z,100186.00
2022-10-14T11:16:07.575Z,100205.31
2022-10-14T11:18:59.680Z,100202.59
2022-10-14T11:21:50.384Z,100189.19
2022-10-14T11:24:30.982Z,100188.19
2022-10-14T11:27:22.357Z,100197.69
2022-10-14T11:30:03.331Z,100184.00
2022-10-14T11:32:39.001Z,100197.50
2022-10-14T11:35:10.495Z,100190.59
2022-10-14T11:38:06.533Z,100196.25
2022-10-14T11:40:51.330Z,100192.50
2022-10-14T11:43:34.375Z,100197.44
2022-10-14T11:46:13.369Z,100182.22
2022-10-14T11:48:45.952Z,100193.38
2022-10-14T11:51:35.664Z,100195.09
2022-10-14T11:54:02.539Z,100189.31
2022-10-14T11:56:48.030Z,100189.69
2022-10-14T11:59:40.158Z,100185.84
2022-10-14T12:02:32.795Z,100198.13
2022-10-14T12:05:17.185Z,100191.94
2022-10-14T12:08:05.137Z,100183.00
2022-10-14T12:10:38.874Z,100182.44
2022-10-14T12:13:12.432Z,100173.59
2022-10-14T12:15:40.759Z,100180.78
2022-10-14T12:18:08.335Z,100167.50
2022-10-14T12:21:10.966Z,100171.53
2022-10-14T12:23:41.029Z,100173.16
2022-10-14T12:26:24.465Z,100164.53
2022-10-14T12:28:53.910Z,100166.28
2022-10-14T12:31:38.280Z,100162.19
2022-10-14T12:34:11.070Z,100119.13
2022-10-14T12:36:38.745Z,100159.06
2022-10-14T12:39:17.319Z,100166.66
2022-10-14T12:42:03.388Z,100148.56
2022-10-14T12:44:42.564Z,100156.38
2022-10-14T12:47:28.824Z,100153.19
2022-10-14T12:49:57.290Z,100150.16
2022-10-14T12:52:27.523Z,100158.06
2022-10-14T12:55:07.646Z,100151.41
2022-10-14T12:57:38.703Z,100091.28
2022-10-14T13:00:24.566Z,100157.56
2022-10-14T13:02:53.920Z,100155.69
2022-10-14T13:05:39.322Z,100153.88
2022-10-14T13:08:21.158Z,100153.81
2022-10-14T13:10:53.811Z,100150.94
2022-10-14T13:13:38.981Z,100151.97
2022-10-14T13:16:21.057Z,100146.19
2022-10-14T13:18:58.126Z,100134.03
2022-10-14T13:21:36.918Z,100143.84
2022-10-14T13:24:07.905Z,100152.81
2022-10-14T13:26:43.525Z,100158.09
2022-10-14T13:29:16.427Z,100141.00
2022-10-14T13:32:01.633Z,100148.63
2022-10-14T13:34:51.843Z,100152.63
2022-10-14T13:37:30.704Z,100150.78
2022-10-14T13:39:58.198Z,100136.69
2022-10-14T13:42:33.814Z,100145.41
2022-10-14T13:45:12.012Z,100127.69
2022-10-14T13:47:42.243Z,100129.25
2022-10-14T13:50:11.190Z,100146.00
2022-10-14T13:52:38.109Z,100134.78
2022-10-14T13:55:18.099Z,100146.88
2022-10-14T13:58:19.428Z,100151.06
2022-10-14T14:01:01.005Z,100150.50
2022-10-14T14:03:37.388Z,100148.94
2022-10-14T14:06:11.101Z,100146.13
2022-10-14T14:08:55.797Z,100138.50
2022-10-14T14:11:25.213Z,100123.94
2022-10-14T14:14:00.655Z,100157.72
2022-10-14T14:16:31.391Z,100140.63
2022-10-14T14:19:14.106Z,100146.13
2022-10-14T14:21:40.860Z,100135.88
2022-10-14T14:24:16.994Z,100148.41
2022-10-14T14:26:44.128Z,100143.50
2022-10-14T14:29:18.825Z,100149.66
2022-10-14T14:32:05.398Z,100140.69
2022-10-14T14:34:35.212Z,100131.34
2022-10-14T14:37:10.995Z,100117.09
2022-10-14T14:40:05.745Z,100127.53
2022-10-14T14:42:36.114Z,100137.28
2022-10-14T14:45:20.457Z,100130.53
2022-10-14T14:47:49.549Z,100113.09
2022-10-14T14:50:30.063Z,100131.94
2022-10-14T14:53:02.152Z,100128.75
2022-10-14T14:55:43.836Z,100125.38
2022-10-14T14:58:21.772Z,100116.34
2022-10-14T15:00:50.065Z,100117.38
2022-10-14T15:03:16.762Z,100112.72
2022-10-14T15:06:03.595Z,100117.31
2022-10-14T15:08:36.772Z,100129.84
2022-10-14T15:11:04.159Z,100132.84
2022-10-14T15:13:40.118Z,100118.47
2022-10-14T15:16:07.892Z,100118.81
2022-10-14T15:18:37.563Z,100117.69
2022-10-14T15:21:13.383Z,100129.00
2022-10-14T15:23:50.044Z,100118.06
2022-10-14T15:26:36.354Z,100120.16
2022-10-14T15:29:08.976Z,100125.56
2022-10-14T15:31:37.065Z,100123.28
2022-10-14T15:34:04.286Z,100129.25
2022-10-14T15:36:32.870Z,100111.44
2022-10-14T15:39:01.618Z,100110.69
2022-10-14T15:41:28.876Z,100134.97
2022-10-14T15:43:55.556Z,100133.25
2022-10-14T15:46:41.167Z,100132.09
2022-10-14T15:49:27.804Z,100113.16
2022-10-14T15:51:54.522Z,100117.34
2022-10-14T15:54:21.112Z,100128.88
2022-10-14T15:56:48.444Z,100130.91
2022-10-14T15:59:16.350Z,100116.44
2022-10-14T16:01:45.160Z,100125.38
2022-10-14T16:04:22.280Z,100121.28
2022-10-14T16:06:49.892Z,100140.38
2022-10-14T16:09:16.551Z,100140.47
2022-10-14T16:11:43.538Z,100127.97
2022-10-14T16:14:13.370Z,100136.13
2022-10-14T16:16:45.420Z,100135.56
2022-10-14T16:19:12.606Z,100126.31
2022-10-14T16:21:40.391Z,100133.94
2022-10-14T16:24:08.132Z,100130.50
2022-10-14T16:26:34.818Z,100145.81
2022-10-14T16:29:03.662Z,100139.66
2022-10-14T16:31:30.484Z,100120.06
2022-10-14T16:33:57.176Z,100110.00
2022-10-14T16:36:26.170Z,100146.44
2022-10-14T16:38:54.727Z,100140.53
2022-10-14T16:41:21.477Z,100137.84
2022-10-14T16:43:48.370Z,100147.31
2022-10-14T16:46:15.690Z,100137.25
2022-10-14T16:48:42.581Z,100141.78
2022-10-14T16:51:09.508Z,100138.25
2022-10-14T16:53:42.014Z,100142.78
2022-10-14T16:56:38.362Z,100140.03
2022-10-14T16:59:07.656Z,100136.53
2022-10-14T17:01:34.290Z,100140.75
2022-10-14T17:04:01.019Z,100138.31
2022-10-14T17:06:27.774Z,100127.94
2022-10-14T17:08:55.330Z,100134.78
2022-10-14T17:11:22.305Z,100120.97
2022-10-14T17:13:52.775Z,100131.44
2022-10-14T17:16:19.770Z,100065.22
2022-10-14T17:18:46.456Z,100122.09
2022-10-14T17:21:13.758Z,100117.06
2022-10-14T17:23:42.440Z,100135.91
2022-10-14T17:26:14.838Z,100136.91
2022-10-14T17:28:42.105Z,100128.38
2022-10-14T17:31:10.869Z,100108.81
2022-10-14T17:33:38.206Z,100125.00
2022-10-14T17:36:06.562Z,100139.88
2022-10-14T17:38:34.596Z,100114.94
2022-10-14T17:41:06.176Z,100134.06
2022-10-14T17:43:33.282Z,100124.34
2022-10-14T17:46:04.309Z,100124.09
2022-10-14T17:48:31.759Z,100117.06
2022-10-14T17:50:58.734Z,100125.16
2022-10-14T17:53:25.484Z,100128.06
2022-10-14T17:55:55.337Z,100127.25
2022-10-14T17:58:24.251Z,100116.47
2022-10-14T18:00:50.876Z,100125.91
2022-10-14T18:03:18.562Z,100126.84
2022-10-14T18:05:48.752Z,100131.00
2022-10-14T18:08:15.785Z,100135.25
2022-10-14T18:10:42.696Z,100127.59
2022-10-14T18:13:09.463Z,100139.25
2022-10-14T18:15:36.488Z,100137.53
2022-10-14T18:18:03.126Z,100139.66
2022-10-14T18:20:29.756Z,100147.44
2022-10-14T18:22:56.607Z,100149.78
2022-10-14T18:25:23.594Z,100152.81
2022-10-14T18:27:50.300Z,100143.28
2022-10-14T18:30:17.113Z,100130.63
2022-10-14T18:32:43.722Z,100145.53
2022-10-14T18:35:10.607Z,100142.25
2022-10-14T18:37:37.198Z,100149.16
2022-10-14T18:40:04.504Z,100139.75
2022-10-14T18:42:31.307Z,100150.34
2022-10-14T18:44:59.222Z,100139.22
2022-10-14T18:47:25.974Z,100146.19
2022-10-14T18:49:52.791Z,100137.97
2022-10-14T18:52:21.075Z,100139.81
2022-10-14T18:54:48.192Z,100141.59
2022-10-14T18:57:15.078Z,100142.19
2022-10-14T18:59:42.138Z,100146.69
2022-10-14T19:02:13.630Z,100151.88
2022-10-14T19:04:40.321Z,100154.25
2022-10-14T19:07:07.306Z,100143.47
2022-10-14T19:09:34.369Z,100155.66
2022-10-14T19:12:01.133Z,100156.66
2022-10-14T19:14:28.874Z,100161.28
2022-10-14T19:16:55.517Z,100161.38
2022-10-14T19:19:22.630Z,100162.94
2022-10-14T19:21:51.036Z,100152.09
2022-10-14T19:24:17.781Z,100166.75
2022-10-14T19:26:46.098Z,100172.91
2022-10-14T19:29:16.238Z,100159.31
2022-10-14T19:31:44.091Z,100170.66
2022-10-14T19:34:13.680Z,100187.06
2022-10-14T19:36:40.759Z,100182.78
2022-10-14T19:39:09.598Z,100187.19
2022-10-14T19:41:43.218Z,100187.28
2022-10-14T19:44:11.186Z,100193.09
2022-10-14T19:46:38.229Z,100188.94
2022-10-14T19:49:04.985Z,100199.34
2022-10-14T19:51:32.849Z,100196.75
2022-10-14T19:53:59.718Z,100182.16
2022-10-14T19:56:26.947Z,100199.41
2022-10-14T19:58:57.480Z,100186.47
2022-10-14T20:01:25.752Z,100189.91
2022-10-14T20:03:53.363Z,100202.63
2022-10-14T20:06:21.034Z,100198.31
2022-10-14T20:08:47.957Z,100184.75
2022-10-14T20:11:17.351Z,100197.66
2022-10-14T20:13:44.716Z,100195.78
2022-10-14T20:16:12.825Z,100191.59
2022-10-14T20:18:39.598Z,100190.75
2022-10-14T20:21:07.057Z,100193.34
2022-10-14T20:23:35.360Z,100194.19
2022-10-14T20:26:13.504Z,100168.19
2022-10-14T20:28:40.286Z,100191.47
2022-10-14T20:31:13.343Z,100178.50
2022-10-14T20:33:39.970Z,100190.59
2022-10-14T20:36:11.857Z,100198.22
2022-10-14T20:38:39.220Z,100194.06
2022-10-14T20:41:07.862Z,100205.34
2022-10-14T20:43:34.492Z,100195.03
2022-10-14T20:46:01.222Z,100206.38
2022-10-14T20:48:27.824Z,100194.72
2022-10-14T20:50:54.432Z,100198.25
2022-10-14T20:53:21.045Z,100190.53
2022-10-14T20:55:47.655Z,100202.56
2022-10-14T20:58:14.611Z,100194.19
2022-10-14T21:00:41.205Z,100204.59
2022-10-14T21:03:07.871Z,100202.97
2022-10-14T21:05:37.154Z,100185.91
2022-10-14T21:08:04.838Z,100205.03
2022-10-14T21:10:31.491Z,100186.25
2022-10-14T21:12:58.186Z,100196.59
2022-10-14T21:15:26.977Z,100195.75
2022-10-14T21:17:53.607Z,100190.69
2022-10-14T21:20:20.292Z,100212.19
2022-10-14T21:22:46.992Z,100196.81
2022-10-14T21:25:13.752Z,100201.22
2022-10-14T21:27:40.355Z,100215.78
2022-10-14T21:30:07.485Z,100196.88
2022-10-14T21:32:34.098Z,100221.06
2022-10-14T21:35:00.700Z,100208.19
2022-10-14T21:37:27.312Z,100217.72
2022-10-14T21:39:54.056Z,100218.41
2022-10-14T21:42:20.947Z,100200.41
2022-10-14T21:44:47.717Z,100209.81
2022-10-14T21:47:14.365Z,100213.41
2022-10-14T21:49:41.036Z,100203.16
2022-10-14T21:52:08.246Z,100215.97
2022-10-14T21:54:34.829Z,100208.06
2022-10-14T21:57:01.555Z,100209.63
2022-10-14T21:59:28.150Z,100197.56
2022-10-14T22:01:57.188Z,100197.63
2022-10-14T22:04:26.121Z,100201.78
2022-10-14T22:06:53.036Z,100200.88
2022-10-14T22:09:19.674Z,100199.94
2022-10-14T22:11:46.391Z,100200.84
2022-10-14T22:14:17.354Z,100196.38
2022-10-14T22:16:45.423Z,100200.63
2022-10-14T22:19:13.041Z,100217.63
2022-10-14T22:21:41.419Z,100206.38
2022-10-14T22:26:40.575Z,100212.97
2022-10-14T22:29:13.301Z,100202.78
2022-10-14T22:31:40.342Z,100199.41
2022-10-14T22:34:08.191Z,100205.53
2022-10-14T22:36:35.437Z,100203.78
2022-10-14T22:39:05.952Z,100203.91
2022-10-14T22:41:35.733Z,100198.00
2022-10-14T22:44:04.153Z,100167.84
2022-10-14T22:46:32.643Z,100210.66
2022-10-14T22:49:00.772Z,100197.72
2022-10-14T22:51:36.013Z,100212.91
2022-10-14T22:54:03.436Z,100191.50
2022-10-14T22:56:31.147Z,100206.91
2022-10-14T22:59:03.221Z,100186.38
2022-10-14T23:01:30.095Z,100202.81
2022-10-14T23:03:57.936Z,100178.63
2022-10-14T23:06:25.155Z,100202.72
2022-10-14T23:08:51.767Z,100205.13
2022-10-14T23:11:20.298Z,100200.72
2022-10-14T23:13:47.661Z,100204.22
2022-10-14T23:16:16.739Z,100205.81
2022-10-14T23:18:44.111Z,100206.63
2022-10-14T23:21:25.247Z,100202.31
2022-10-14T23:23:53.370Z,100210.94
2022-10-14T23:26:22.173Z,100199.66
2022-10-14T23:28:53.592Z,100210.91
2022-10-14T23:31:22.868Z,100196.94
2022-10-14T23:33:51.525Z,100211.47
2022-10-14T23:36:19.051Z,100210.66
2022-10-14T23:38:46.580Z,100215.78
2022-10-14T23:41:13.913Z,100210.59
2022-10-14T23:43:41.053Z,100213.19
2022-10-14T23:46:07.989Z,100203.63
2022-10-14T23:48:35.163Z,100198.34
2022-10-14T23:51:01.825Z,100193.97
2022-10-14T23:53:28.543Z,100199.91
2022-10-14T23:55:55.823Z,100201.50
2022-10-14T23:58:23.781Z,100201.41
